Terminal Aerodrome Forecast
Issued by NWS Jacksonville, FL

Home | Current Version | Previous Version | Text Only | Print | Product List | Glossary On
Versions: 1 2 3 4 5 6 7 8 9 10 11 12
000
FTUS42 KJAX 211700
TAFGNV
TAF
KGNV 211720Z 2118/2218 06012KT P6SM SKC
     FM220200 04007KT P6SM SCT250
     FM220500 03005KT P6SM SCT025 BKN035
     FM221000 03005KT P6SM BKN025
     FM221500 07012G20KT P6SM VCSH OVC020=

USA.gov is the U.S. government's official web portal to all federal, state and local government web resources and services.